sensor_id;sensor_type;location;lat;lon;timestamp;noise_LAeq;noise_LA_min;noise_LA_max;noise_LA01;noise_LA95
57439;Laerm;43282;47.188;8.896;2023-07-16T00:00:59;44.26;39.92;59.24;;
57439;Laerm;43282;47.188;8.896;2023-07-16T00:03:24;48.76;39.81;62.80;;
57439;Laerm;43282;47.188;8.896;2023-07-16T00:05:50;52.39;41.61;68.61;;
57439;Laerm;43282;47.188;8.896;2023-07-16T00:08:16;57.35;44.20;82.44;;
57439;Laerm;43282;47.188;8.896;2023-07-16T00:10:41;61.49;45.63;84.32;;
57439;Laerm;43282;47.188;8.896;2023-07-16T00:13:06;63.95;42.35;90.49;;
57439;Laerm;43282;47.188;8.896;2023-07-16T00:15:32;62.55;44.49;84.95;;
57439;Laerm;43282;47.188;8.896;2023-07-16T00:17:57;55.86;44.04;75.38;;
57439;Laerm;43282;47.188;8.896;2023-07-16T00:20:22;63.58;42.29;84.14;;
57439;Laerm;43282;47.188;8.896;2023-07-16T00:22:51;61.05;43.39;88.86;;
57439;Laerm;43282;47.188;8.896;2023-07-16T00:25:17;64.21;45.39;84.28;;
57439;Laerm;43282;47.188;8.896;2023-07-16T00:27:42;58.40;45.54;77.08;;
57439;Laerm;43282;47.188;8.896;2023-07-16T00:30:08;66.93;49.19;88.35;;
57439;Laerm;43282;47.188;8.896;2023-07-16T00:32:34;71.25;56.73;92.83;;
57439;Laerm;43282;47.188;8.896;2023-07-16T00:35:00;69.48;60.13;92.78;;
57439;Laerm;43282;47.188;8.896;2023-07-16T00:37:25;65.65;55.02;89.74;;
57439;Laerm;43282;47.188;8.896;2023-07-16T00:39:50;66.43;54.88;90.63;;
57439;Laerm;43282;47.188;8.896;2023-07-16T00:42:16;59.01;49.36;80.30;;
57439;Laerm;43282;47.188;8.896;2023-07-16T00:44:41;61.28;47.76;82.63;;
57439;Laerm;43282;47.188;8.896;2023-07-16T00:47:07;54.53;43.99;72.82;;
57439;Laerm;43282;47.188;8.896;2023-07-16T00:49:33;56.13;43.29;70.68;;
57439;Laerm;43282;47.188;8.896;2023-07-16T00:51:58;56.74;43.72;72.22;;
57439;Laerm;43282;47.188;8.896;2023-07-16T00:54:24;56.30;44.15;74.56;;
57439;Laerm;43282;47.188;8.896;2023-07-16T00:56:58;46.34;41.68;58.64;;
57439;Laerm;43282;47.188;8.896;2023-07-16T00:59:23;48.59;41.38;64.67;;
57439;Laerm;43282;47.188;8.896;2023-07-16T01:01:48;44.60;40.23;55.11;;
57439;Laerm;43282;47.188;8.896;2023-07-16T01:04:14;49.33;40.23;67.52;;
57439;Laerm;43282;47.188;8.896;2023-07-16T01:06:41;49.77;39.58;66.24;;
57439;Laerm;43282;47.188;8.896;2023-07-16T01:11:33;50.28;40.43;66.04;;
57439;Laerm;43282;47.188;8.896;2023-07-16T01:14:00;48.87;41.38;64.47;;
57439;Laerm;43282;47.188;8.896;2023-07-16T01:16:26;51.45;42.06;69.07;;
57439;Laerm;43282;47.188;8.896;2023-07-16T01:18:52;46.14;41.38;61.03;;
57439;Laerm;43282;47.188;8.896;2023-07-16T01:21:18;56.69;47.22;70.41;;
57439;Laerm;43282;47.188;8.896;2023-07-16T01:23:59;58.57;49.64;71.90;;
57439;Laerm;43282;47.188;8.896;2023-07-16T01:29:25;55.09;51.93;66.89;;
57439;Laerm;43282;47.188;8.896;2023-07-16T01:31:52;55.34;50.48;68.27;;
57439;Laerm;43282;47.188;8.896;2023-07-16T01:34:19;57.22;48.32;75.33;;
57439;Laerm;43282;47.188;8.896;2023-07-16T01:36:45;51.34;46.93;68.34;;
57439;Laerm;43282;47.188;8.896;2023-07-16T01:39:11;52.67;48.10;64.27;;
57439;Laerm;43282;47.188;8.896;2023-07-16T01:41:36;52.17;46.38;66.13;;
57439;Laerm;43282;47.188;8.896;2023-07-16T01:44:02;49.58;45.33;60.63;;
57439;Laerm;43282;47.188;8.896;2023-07-16T01:46:27;52.51;44.39;69.21;;
57439;Laerm;43282;47.188;8.896;2023-07-16T01:48:52;47.12;42.41;58.40;;
57439;Laerm;43282;47.188;8.896;2023-07-16T01:51:18;48.84;41.68;64.36;;
57439;Laerm;43282;47.188;8.896;2023-07-16T01:53:45;48.36;40.53;64.74;;
57439;Laerm;43282;47.188;8.896;2023-07-16T01:56:10;51.12;39.70;66.75;;
57439;Laerm;43282;47.188;8.896;2023-07-16T01:58:35;49.02;39.46;66.23;;
57439;Laerm;43282;47.188;8.896;2023-07-16T02:01:01;42.86;38.95;51.45;;
57439;Laerm;43282;47.188;8.896;2023-07-16T02:03:26;44.58;39.70;58.86;;
57439;Laerm;43282;47.188;8.896;2023-07-16T02:05:51;44.94;40.03;55.46;;
57439;Laerm;43282;47.188;8.896;2023-07-16T02:08:17;44.20;39.08;54.78;;
57439;Laerm;43282;47.188;8.896;2023-07-16T02:10:48;44.40;38.67;56.65;;
57439;Laerm;43282;47.188;8.896;2023-07-16T02:13:14;49.47;38.52;67.50;;
57439;Laerm;43282;47.188;8.896;2023-07-16T02:15:39;50.91;38.52;66.61;;
57439;Laerm;43282;47.188;8.896;2023-07-16T02:18:05;52.44;37.88;71.58;;
57439;Laerm;43282;47.188;8.896;2023-07-16T02:20:31;46.53;39.58;62.72;;
57439;Laerm;43282;47.188;8.896;2023-07-16T02:22:56;43.46;39.21;55.37;;
57439;Laerm;43282;47.188;8.896;2023-07-16T02:25:22;42.75;37.32;50.51;;
57439;Laerm;43282;47.188;8.896;2023-07-16T02:27:47;48.53;38.67;64.24;;
57439;Laerm;43282;47.188;8.896;2023-07-16T02:30:13;49.25;39.46;67.41;;
57439;Laerm;43282;47.188;8.896;2023-07-16T02:32:39;45.27;39.21;55.52;;
57439;Laerm;43282;47.188;8.896;2023-07-16T02:35:04;44.24;39.70;55.39;;
57439;Laerm;43282;47.188;8.896;2023-07-16T02:37:30;42.17;38.52;48.54;;
57439;Laerm;43282;47.188;8.896;2023-07-16T02:39:55;46.13;38.32;62.51;;
57439;Laerm;43282;47.188;8.896;2023-07-16T02:42:20;43.06;40.03;50.69;;
57439;Laerm;43282;47.188;8.896;2023-07-16T02:44:45;42.30;39.08;48.12;;
57439;Laerm;43282;47.188;8.896;2023-07-16T02:47:11;45.72;38.37;61.32;;
57439;Laerm;43282;47.188;8.896;2023-07-16T02:49:37;46.31;39.34;62.46;;
57439;Laerm;43282;47.188;8.896;2023-07-16T02:52:02;41.85;37.88;47.14;;
57439;Laerm;43282;47.188;8.896;2023-07-16T02:54:28;42.53;38.37;49.59;;
57439;Laerm;43282;47.188;8.896;2023-07-16T02:56:53;43.13;39.58;50.35;;
57439;Laerm;43282;47.188;8.896;2023-07-16T02:59:19;42.89;38.95;52.68;;
57439;Laerm;43282;47.188;8.896;2023-07-16T03:01:44;45.57;39.92;59.14;;
57439;Laerm;43282;47.188;8.896;2023-07-16T03:04:09;43.72;40.03;60.66;;
57439;Laerm;43282;47.188;8.896;2023-07-16T03:06:35;44.95;39.08;57.88;;
57439;Laerm;43282;47.188;8.896;2023-07-16T03:09:00;46.60;38.37;64.04;;
57439;Laerm;43282;47.188;8.896;2023-07-16T03:11:26;49.37;40.98;69.40;;
57439;Laerm;43282;47.188;8.896;2023-07-16T03:13:51;49.99;41.30;64.59;;
57439;Laerm;43282;47.188;8.896;2023-07-16T03:16:16;46.25;41.14;55.99;;
57439;Laerm;43282;47.188;8.896;2023-07-16T03:18:42;53.47;41.75;70.14;;
57439;Laerm;43282;47.188;8.896;2023-07-16T03:21:07;52.58;41.38;69.67;;
57439;Laerm;43282;47.188;8.896;2023-07-16T03:23:32;53.22;40.80;71.21;;
57439;Laerm;43282;47.188;8.896;2023-07-16T03:25:58;57.24;40.89;73.48;;
57439;Laerm;43282;47.188;8.896;2023-07-16T03:28:23;57.89;39.81;70.77;;
57439;Laerm;43282;47.188;8.896;2023-07-16T03:30:49;57.90;40.23;71.24;;
57439;Laerm;43282;47.188;8.896;2023-07-16T03:33:15;57.98;40.03;71.82;;
57439;Laerm;43282;47.188;8.896;2023-07-16T03:35:44;57.73;40.54;72.98;;
57439;Laerm;43282;47.188;8.896;2023-07-16T03:38:10;57.92;40.13;71.62;;
57439;Laerm;43282;47.188;8.896;2023-07-16T03:40:35;54.49;38.52;70.15;;
57439;Laerm;43282;47.188;8.896;2023-07-16T03:43:01;56.72;40.33;69.83;;
57439;Laerm;43282;47.188;8.896;2023-07-16T03:45:26;55.87;40.89;70.49;;
57439;Laerm;43282;47.188;8.896;2023-07-16T03:47:51;57.07;40.62;70.86;;
57439;Laerm;43282;47.188;8.896;2023-07-16T03:50:17;55.80;39.81;71.01;;
57439;Laerm;43282;47.188;8.896;2023-07-16T03:52:43;54.23;40.03;68.45;;
57439;Laerm;43282;47.188;8.896;2023-07-16T03:55:08;51.03;40.62;65.46;;
57439;Laerm;43282;47.188;8.896;2023-07-16T03:57:34;50.60;40.23;66.40;;
57439;Laerm;43282;47.188;8.896;2023-07-16T04:00:00;48.59;42.09;66.87;;
57439;Laerm;43282;47.188;8.896;2023-07-16T04:02:25;52.51;42.82;71.17;;
57439;Laerm;43282;47.188;8.896;2023-07-16T04:04:50;53.08;43.04;71.90;;
57439;Laerm;43282;47.188;8.896;2023-07-16T04:07:17;50.64;40.18;68.23;;
57439;Laerm;43282;47.188;8.896;2023-07-16T04:09:42;45.58;38.47;63.71;;
57439;Laerm;43282;47.188;8.896;2023-07-16T04:12:07;51.82;41.06;64.52;;
57439;Laerm;43282;47.188;8.896;2023-07-16T04:14:33;48.56;41.22;62.32;;
57439;Laerm;43282;47.188;8.896;2023-07-16T04:16:58;50.63;41.82;63.69;;
57439;Laerm;43282;47.188;8.896;2023-07-16T04:19:23;50.86;41.96;68.40;;
57439;Laerm;43282;47.188;8.896;2023-07-16T04:21:49;53.36;42.35;66.79;;
57439;Laerm;43282;47.188;8.896;2023-07-16T04:24:14;50.97;41.22;62.31;;
57439;Laerm;43282;47.188;8.896;2023-07-16T04:26:40;51.19;40.43;63.44;;
57439;Laerm;43282;47.188;8.896;2023-07-16T04:29:05;49.23;40.23;61.82;;
57439;Laerm;43282;47.188;8.896;2023-07-16T04:31:30;47.29;39.58;62.25;;
57439;Laerm;43282;47.188;8.896;2023-07-16T04:33:55;50.92;40.89;65.73;;
57439;Laerm;43282;47.188;8.896;2023-07-16T04:36:21;50.70;39.81;68.27;;
57439;Laerm;43282;47.188;8.896;2023-07-16T04:38:46;44.99;39.34;58.08;;
57439;Laerm;43282;47.188;8.896;2023-07-16T04:41:11;49.14;39.08;63.55;;
57439;Laerm;43282;47.188;8.896;2023-07-16T04:43:38;51.29;39.21;66.75;;
57439;Laerm;43282;47.188;8.896;2023-07-16T04:46:03;48.07;39.81;64.38;;
57439;Laerm;43282;47.188;8.896;2023-07-16T04:48:28;43.36;39.70;58.41;;
57439;Laerm;43282;47.188;8.896;2023-07-16T04:50:54;49.92;39.08;62.43;;
57439;Laerm;43282;47.188;8.896;2023-07-16T04:53:19;51.82;39.81;66.98;;
57439;Laerm;43282;47.188;8.896;2023-07-16T04:55:44;50.33;38.81;66.62;;
57439;Laerm;43282;47.188;8.896;2023-07-16T04:58:11;53.76;40.33;69.44;;
57439;Laerm;43282;47.188;8.896;2023-07-16T05:00:36;49.38;40.23;63.81;;
57439;Laerm;43282;47.188;8.896;2023-07-16T05:03:01;54.55;40.43;83.41;;
57439;Laerm;43282;47.188;8.896;2023-07-16T05:05:27;52.39;39.58;68.29;;
57439;Laerm;43282;47.188;8.896;2023-07-16T05:07:52;50.80;41.30;65.88;;
57439;Laerm;43282;47.188;8.896;2023-07-16T05:10:18;49.50;40.71;63.66;;
57439;Laerm;43282;47.188;8.896;2023-07-16T05:12:43;47.69;39.81;63.01;;
57439;Laerm;43282;47.188;8.896;2023-07-16T05:15:09;52.64;39.58;66.35;;
57439;Laerm;43282;47.188;8.896;2023-07-16T05:17:34;50.27;39.46;61.48;;
57439;Laerm;43282;47.188;8.896;2023-07-16T05:20:00;51.10;40.33;69.20;;
57439;Laerm;43282;47.188;8.896;2023-07-16T05:29:09;47.51;39.35;64.03;;
57439;Laerm;43282;47.188;8.896;2023-07-16T05:31:34;50.06;40.98;63.55;;
57439;Laerm;43282;47.188;8.896;2023-07-16T05:33:59;49.87;41.22;62.54;;
57439;Laerm;43282;47.188;8.896;2023-07-16T05:36:25;52.89;41.61;68.15;;
57439;Laerm;43282;47.188;8.896;2023-07-16T05:38:50;50.93;41.06;62.99;;
57439;Laerm;43282;47.188;8.896;2023-07-16T05:41:15;46.89;40.98;60.49;;
57439;Laerm;43282;47.188;8.896;2023-07-16T05:43:41;55.83;42.19;72.95;;
57439;Laerm;43282;47.188;8.896;2023-07-16T05:46:06;50.51;41.22;63.64;;
57439;Laerm;43282;47.188;8.896;2023-07-16T05:48:31;47.22;39.89;62.24;;
57439;Laerm;43282;47.188;8.896;2023-07-16T05:50:57;49.51;41.46;60.94;;
57439;Laerm;43282;47.188;8.896;2023-07-16T05:53:22;50.24;39.81;67.49;;
57439;Laerm;43282;47.188;8.896;2023-07-16T05:55:47;52.45;41.06;66.95;;
57439;Laerm;43282;47.188;8.896;2023-07-16T05:58:28;48.23;40.89;62.64;;
57439;Laerm;43282;47.188;8.896;2023-07-16T06:00:54;48.57;40.80;60.25;;
57439;Laerm;43282;47.188;8.896;2023-07-16T06:03:19;51.65;40.23;65.08;;
57439;Laerm;43282;47.188;8.896;2023-07-16T06:05:45;48.85;40.71;62.56;;
57439;Laerm;43282;47.188;8.896;2023-07-16T06:08:10;52.87;40.71;74.75;;
57439;Laerm;43282;47.188;8.896;2023-07-16T06:10:36;51.05;41.53;64.76;;
57439;Laerm;43282;47.188;8.896;2023-07-16T06:13:01;50.68;42.29;65.79;;
57439;Laerm;43282;47.188;8.896;2023-07-16T06:15:27;50.72;41.68;66.33;;
57439;Laerm;43282;47.188;8.896;2023-07-16T06:17:52;52.72;40.53;69.81;;
57439;Laerm;43282;47.188;8.896;2023-07-16T06:20:17;52.38;41.82;64.00;;
57439;Laerm;43282;47.188;8.896;2023-07-16T06:22:43;52.01;41.68;63.79;;
57439;Laerm;43282;47.188;8.896;2023-07-16T06:25:08;58.05;41.53;75.03;;
57439;Laerm;43282;47.188;8.896;2023-07-16T06:27:36;51.06;41.14;62.54;;
57439;Laerm;43282;47.188;8.896;2023-07-16T06:30:01;48.17;40.03;67.41;;
57439;Laerm;43282;47.188;8.896;2023-07-16T06:32:26;48.98;40.13;67.09;;
57439;Laerm;43282;47.188;8.896;2023-07-16T06:34:52;52.82;41.38;67.20;;
57439;Laerm;43282;47.188;8.896;2023-07-16T06:37:17;48.72;40.23;60.98;;
57439;Laerm;43282;47.188;8.896;2023-07-16T06:39:42;50.81;40.23;68.10;;
57439;Laerm;43282;47.188;8.896;2023-07-16T06:42:08;48.73;40.03;62.53;;
57439;Laerm;43282;47.188;8.896;2023-07-16T06:44:33;51.30;40.53;67.69;;
57439;Laerm;43282;47.188;8.896;2023-07-16T06:46:58;50.01;40.33;61.25;;
57439;Laerm;43282;47.188;8.896;2023-07-16T06:49:24;54.06;40.98;72.23;;
57439;Laerm;43282;47.188;8.896;2023-07-16T06:51:49;45.19;40.71;59.04;;
57439;Laerm;43282;47.188;8.896;2023-07-16T06:54:15;54.04;40.80;69.21;;
57439;Laerm;43282;47.188;8.896;2023-07-16T06:56:40;53.27;40.80;65.02;;
57439;Laerm;43282;47.188;8.896;2023-07-16T06:59:05;52.74;39.92;70.65;;
57439;Laerm;43282;47.188;8.896;2023-07-16T07:01:31;50.78;40.71;65.43;;
57439;Laerm;43282;47.188;8.896;2023-07-16T07:03:56;51.78;42.29;64.88;;
57439;Laerm;43282;47.188;8.896;2023-07-16T07:06:21;51.86;42.03;62.81;;
57439;Laerm;43282;47.188;8.896;2023-07-16T07:08:47;52.18;41.14;67.24;;
57439;Laerm;43282;47.188;8.896;2023-07-16T07:11:12;52.54;41.53;64.87;;
57439;Laerm;43282;47.188;8.896;2023-07-16T07:13:37;52.10;41.96;71.57;;
57439;Laerm;43282;47.188;8.896;2023-07-16T07:16:03;52.73;43.44;62.87;;
57439;Laerm;43282;47.188;8.896;2023-07-16T07:18:28;53.72;42.93;65.56;;
57439;Laerm;43282;47.188;8.896;2023-07-16T07:20:53;52.44;43.14;63.88;;
57439;Laerm;43282;47.188;8.896;2023-07-16T07:23:19;52.16;41.61;62.66;;
57439;Laerm;43282;47.188;8.896;2023-07-16T07:25:48;53.92;42.29;68.16;;
57439;Laerm;43282;47.188;8.896;2023-07-16T07:28:14;55.14;44.83;68.19;;
57439;Laerm;43282;47.188;8.896;2023-07-16T07:30:39;49.75;41.53;60.87;;
57439;Laerm;43282;47.188;8.896;2023-07-16T07:33:04;60.32;42.03;80.23;;
57439;Laerm;43282;47.188;8.896;2023-07-16T07:35:29;57.21;42.41;78.02;;
57439;Laerm;43282;47.188;8.896;2023-07-16T07:37:55;54.88;41.96;74.06;;
57439;Laerm;43282;47.188;8.896;2023-07-16T07:40:20;55.60;42.41;71.83;;
57439;Laerm;43282;47.188;8.896;2023-07-16T07:42:45;51.94;41.89;65.87;;
57439;Laerm;43282;47.188;8.896;2023-07-16T07:45:11;56.68;42.09;69.28;;
57439;Laerm;43282;47.188;8.896;2023-07-16T07:47:36;51.76;41.61;64.95;;
57439;Laerm;43282;47.188;8.896;2023-07-16T07:50:01;52.62;41.75;65.80;;
57439;Laerm;43282;47.188;8.896;2023-07-16T07:52:27;50.48;42.03;63.79;;
57439;Laerm;43282;47.188;8.896;2023-07-16T07:54:52;53.22;42.53;64.25;;
57439;Laerm;43282;47.188;8.896;2023-07-16T07:57:19;54.95;43.39;73.83;;
57439;Laerm;43282;47.188;8.896;2023-07-16T07:59:44;54.53;42.41;70.22;;
57439;Laerm;43282;47.188;8.896;2023-07-16T08:02:09;52.93;41.82;64.99;;
57439;Laerm;43282;47.188;8.896;2023-07-16T08:04:35;52.45;42.41;65.87;;
57439;Laerm;43282;47.188;8.896;2023-07-16T08:07:00;54.87;42.53;69.37;;
57439;Laerm;43282;47.188;8.896;2023-07-16T08:09:26;53.52;43.44;70.23;;
57439;Laerm;43282;47.188;8.896;2023-07-16T08:11:52;54.29;41.61;71.92;;
57439;Laerm;43282;47.188;8.896;2023-07-16T08:14:17;53.65;42.82;66.87;;
57439;Laerm;43282;47.188;8.896;2023-07-16T08:16:42;54.74;42.98;69.98;;
57439;Laerm;43282;47.188;8.896;2023-07-16T08:19:08;53.26;42.03;66.68;;
57439;Laerm;43282;47.188;8.896;2023-07-16T08:21:33;53.50;42.53;65.67;;
57439;Laerm;43282;47.188;8.896;2023-07-16T08:23:59;53.95;42.88;77.97;;
57439;Laerm;43282;47.188;8.896;2023-07-16T08:26:24;48.71;41.82;64.49;;
57439;Laerm;43282;47.188;8.896;2023-07-16T08:28:49;52.18;42.09;63.18;;
57439;Laerm;43282;47.188;8.896;2023-07-16T08:31:15;50.96;42.16;64.85;;
57439;Laerm;43282;47.188;8.896;2023-07-16T08:33:40;54.94;43.19;69.78;;
57439;Laerm;43282;47.188;8.896;2023-07-16T08:36:05;53.45;43.24;75.93;;
57439;Laerm;43282;47.188;8.896;2023-07-16T08:38:31;53.76;42.53;72.82;;
57439;Laerm;43282;47.188;8.896;2023-07-16T08:40:56;52.94;43.49;65.05;;
57439;Laerm;43282;47.188;8.896;2023-07-16T08:43:21;56.59;43.54;71.86;;
57439;Laerm;43282;47.188;8.896;2023-07-16T08:45:47;53.70;43.49;64.87;;
57439;Laerm;43282;47.188;8.896;2023-07-16T08:48:13;54.05;44.54;65.23;;
57439;Laerm;43282;47.188;8.896;2023-07-16T08:50:38;53.61;43.77;71.26;;
57439;Laerm;43282;47.188;8.896;2023-07-16T08:53:07;56.53;43.14;74.61;;
57439;Laerm;43282;47.188;8.896;2023-07-16T08:55:33;52.84;41.46;68.91;;
57439;Laerm;43282;47.188;8.896;2023-07-16T08:57:58;53.80;42.35;66.89;;
57439;Laerm;43282;47.188;8.896;2023-07-16T09:00:24;54.24;42.76;65.32;;
57439;Laerm;43282;47.188;8.896;2023-07-16T09:02:53;52.74;43.86;64.22;;
57439;Laerm;43282;47.188;8.896;2023-07-16T09:05:22;56.79;44.72;75.03;;
57439;Laerm;43282;47.188;8.896;2023-07-16T09:07:48;54.89;42.88;73.57;;
57439;Laerm;43282;47.188;8.896;2023-07-16T09:10:13;52.25;43.63;63.12;;
57439;Laerm;43282;47.188;8.896;2023-07-16T09:12:45;54.12;43.77;66.71;;
57439;Laerm;43282;47.188;8.896;2023-07-16T09:15:11;52.98;42.93;66.21;;
57439;Laerm;43282;47.188;8.896;2023-07-16T09:17:36;53.71;42.09;69.01;;
57439;Laerm;43282;47.188;8.896;2023-07-16T09:20:03;55.74;42.65;67.95;;
57439;Laerm;43282;47.188;8.896;2023-07-16T09:22:29;54.43;42.76;72.03;;
57439;Laerm;43282;47.188;8.896;2023-07-16T09:24:54;59.88;43.04;81.74;;
57439;Laerm;43282;47.188;8.896;2023-07-16T09:27:21;53.69;43.24;65.48;;
57439;Laerm;43282;47.188;8.896;2023-07-16T09:29:52;55.45;43.04;72.20;;
57439;Laerm;43282;47.188;8.896;2023-07-16T09:32:18;55.92;43.54;69.39;;
57439;Laerm;43282;47.188;8.896;2023-07-16T09:34:43;56.49;43.34;69.84;;
57439;Laerm;43282;47.188;8.896;2023-07-16T09:37:08;52.54;42.47;64.50;;
57439;Laerm;43282;47.188;8.896;2023-07-16T09:39:34;52.46;42.53;63.35;;
57439;Laerm;43282;47.188;8.896;2023-07-16T09:42:01;56.07;43.39;73.48;;
57439;Laerm;43282;47.188;8.896;2023-07-16T09:44:27;52.84;43.94;62.43;;
57439;Laerm;43282;47.188;8.896;2023-07-16T09:46:52;54.81;43.49;69.25;;
57439;Laerm;43282;47.188;8.896;2023-07-16T09:49:18;59.53;43.58;77.19;;
57439;Laerm;43282;47.188;8.896;2023-07-16T09:51:45;52.92;43.09;67.24;;
57439;Laerm;43282;47.188;8.896;2023-07-16T09:54:14;56.27;43.99;72.76;;
57439;Laerm;43282;47.188;8.896;2023-07-16T09:56:44;54.96;43.24;70.21;;
57439;Laerm;43282;47.188;8.896;2023-07-16T09:59:14;52.76;43.04;64.03;;
57439;Laerm;43282;47.188;8.896;2023-07-16T10:01:40;52.03;43.44;64.62;;
57439;Laerm;43282;47.188;8.896;2023-07-16T10:04:18;53.49;42.41;67.39;;
57439;Laerm;43282;47.188;8.896;2023-07-16T10:09:35;52.63;43.14;65.62;;
57439;Laerm;43282;47.188;8.896;2023-07-16T10:12:34;53.01;43.24;67.52;;
57439;Laerm;43282;47.188;8.896;2023-07-16T10:14:54;55.31;45.01;71.67;;
57439;Laerm;43282;47.188;8.896;2023-07-16T10:17:25;57.39;42.47;75.70;;
57439;Laerm;43282;47.188;8.896;2023-07-16T10:19:51;52.45;42.93;63.39;;
57439;Laerm;43282;47.188;8.896;2023-07-16T10:22:30;53.94;43.58;66.44;;
57439;Laerm;43282;47.188;8.896;2023-07-16T10:24:55;53.33;43.19;64.15;;
57439;Laerm;43282;47.188;8.896;2023-07-16T10:27:31;54.22;43.24;68.91;;
57439;Laerm;43282;47.188;8.896;2023-07-16T10:29:56;54.23;43.99;68.50;;
57439;Laerm;43282;47.188;8.896;2023-07-16T10:32:22;53.66;42.59;73.70;;
57439;Laerm;43282;47.188;8.896;2023-07-16T10:34:50;54.32;43.19;67.43;;
57439;Laerm;43282;47.188;8.896;2023-07-16T10:37:16;54.17;43.49;70.62;;
57439;Laerm;43282;47.188;8.896;2023-07-16T10:39:47;53.21;42.71;66.76;;
57439;Laerm;43282;47.188;8.896;2023-07-16T10:42:13;56.39;42.82;77.19;;
57439;Laerm;43282;47.188;8.896;2023-07-16T10:44:39;52.75;41.96;66.82;;
57439;Laerm;43282;47.188;8.896;2023-07-16T10:47:05;53.69;42.98;71.10;;
57439;Laerm;43282;47.188;8.896;2023-07-16T10:49:30;51.90;42.71;64.70;;
57439;Laerm;43282;47.188;8.896;2023-07-16T10:51:57;51.46;43.04;64.55;;
57439;Laerm;43282;47.188;8.896;2023-07-16T10:54:22;53.86;43.86;67.34;;
57439;Laerm;43282;47.188;8.896;2023-07-16T10:56:49;54.74;43.99;66.21;;
57439;Laerm;43282;47.188;8.896;2023-07-16T10:59:16;55.81;43.63;80.68;;
57439;Laerm;43282;47.188;8.896;2023-07-16T11:01:41;54.26;43.19;69.62;;
57439;Laerm;43282;47.188;8.896;2023-07-16T11:04:08;54.91;43.24;73.33;;
57439;Laerm;43282;47.188;8.896;2023-07-16T11:06:33;53.41;42.93;68.35;;
57439;Laerm;43282;47.188;8.896;2023-07-16T11:09:08;60.07;42.82;78.84;;
57439;Laerm;43282;47.188;8.896;2023-07-16T11:11:34;52.52;42.93;76.68;;
57439;Laerm;43282;47.188;8.896;2023-07-16T11:13:59;56.90;43.24;74.32;;
57439;Laerm;43282;47.188;8.896;2023-07-16T11:16:24;50.01;42.09;66.93;;
57439;Laerm;43282;47.188;8.896;2023-07-16T11:18:50;51.60;41.89;74.75;;
57439;Laerm;43282;47.188;8.896;2023-07-16T11:21:18;54.23;42.16;69.42;;
57439;Laerm;43282;47.188;8.896;2023-07-16T11:23:44;56.72;43.34;69.27;;
57439;Laerm;43282;47.188;8.896;2023-07-16T11:26:09;54.64;43.39;70.30;;
57439;Laerm;43282;47.188;8.896;2023-07-16T11:28:41;56.31;42.93;72.61;;
57439;Laerm;43282;47.188;8.896;2023-07-16T11:31:10;52.68;41.96;68.96;;
57439;Laerm;43282;47.188;8.896;2023-07-16T11:33:35;53.33;42.35;66.33;;
57439;Laerm;43282;47.188;8.896;2023-07-16T11:36:00;55.80;44.31;67.48;;
57439;Laerm;43282;47.188;8.896;2023-07-16T11:38:26;54.56;44.07;70.97;;
57439;Laerm;43282;47.188;8.896;2023-07-16T11:40:51;59.42;43.04;78.50;;
57439;Laerm;43282;47.188;8.896;2023-07-16T11:43:16;52.54;42.47;67.17;;
57439;Laerm;43282;47.188;8.896;2023-07-16T11:45:47;54.48;42.98;68.86;;
57439;Laerm;43282;47.188;8.896;2023-07-16T11:48:12;54.89;42.98;73.76;;
57439;Laerm;43282;47.188;8.896;2023-07-16T11:50:37;52.31;42.71;66.27;;
57439;Laerm;43282;47.188;8.896;2023-07-16T11:53:03;53.27;43.44;69.44;;
57439;Laerm;43282;47.188;8.896;2023-07-16T11:55:28;59.47;43.44;88.88;;
57439;Laerm;43282;47.188;8.896;2023-07-16T11:57:53;51.48;41.82;68.62;;
57439;Laerm;43282;47.188;8.896;2023-07-16T12:00:19;53.14;42.98;70.79;;
57439;Laerm;43282;47.188;8.896;2023-07-16T12:02:44;52.77;42.71;65.18;;
57439;Laerm;43282;47.188;8.896;2023-07-16T12:05:20;54.70;43.04;71.07;;
57439;Laerm;43282;47.188;8.896;2023-07-16T12:07:45;54.66;43.63;69.18;;
57439;Laerm;43282;47.188;8.896;2023-07-16T12:10:10;53.94;42.82;71.86;;
57439;Laerm;43282;47.188;8.896;2023-07-16T12:12:36;55.54;42.65;70.88;;
57439;Laerm;43282;47.188;8.896;2023-07-16T12:15:03;56.24;42.65;70.41;;
57439;Laerm;43282;47.188;8.896;2023-07-16T12:17:29;52.94;42.35;69.33;;
57439;Laerm;43282;47.188;8.896;2023-07-16T12:19:54;57.13;42.76;73.69;;
57439;Laerm;43282;47.188;8.896;2023-07-16T12:22:19;57.22;42.41;74.88;;
57439;Laerm;43282;47.188;8.896;2023-07-16T12:24:46;54.08;43.19;67.91;;
57439;Laerm;43282;47.188;8.896;2023-07-16T12:27:11;53.57;43.14;66.84;;
57439;Laerm;43282;47.188;8.896;2023-07-16T12:29:37;57.82;42.65;73.03;;
57439;Laerm;43282;47.188;8.896;2023-07-16T12:32:02;56.92;43.68;74.37;;
57439;Laerm;43282;47.188;8.896;2023-07-16T12:34:27;53.43;43.51;66.97;;
57439;Laerm;43282;47.188;8.896;2023-07-16T12:36:53;53.18;42.35;67.60;;
57439;Laerm;43282;47.188;8.896;2023-07-16T12:39:20;51.35;42.03;70.51;;
57439;Laerm;43282;47.188;8.896;2023-07-16T12:41:45;56.18;42.65;78.07;;
57439;Laerm;43282;47.188;8.896;2023-07-16T12:44:11;55.36;42.29;73.13;;
57439;Laerm;43282;47.188;8.896;2023-07-16T12:46:36;54.32;42.47;70.35;;
57439;Laerm;43282;47.188;8.896;2023-07-16T12:49:01;52.53;42.35;69.95;;
57439;Laerm;43282;47.188;8.896;2023-07-16T12:51:27;53.69;42.59;73.03;;
57439;Laerm;43282;47.188;8.896;2023-07-16T12:53:52;55.09;43.04;73.24;;
57439;Laerm;43282;47.188;8.896;2023-07-16T12:56:18;54.37;43.24;70.75;;
57439;Laerm;43282;47.188;8.896;2023-07-16T12:58:43;55.10;42.59;68.52;;
57439;Laerm;43282;47.188;8.896;2023-07-16T13:01:08;51.37;42.88;68.55;;
57439;Laerm;43282;47.188;8.896;2023-07-16T13:03:33;53.11;43.14;69.97;;
57439;Laerm;43282;47.188;8.896;2023-07-16T13:05:59;53.92;42.16;69.45;;
57439;Laerm;43282;47.188;8.896;2023-07-16T13:08:24;53.81;42.16;70.36;;
57439;Laerm;43282;47.188;8.896;2023-07-16T13:10:50;54.91;42.41;69.27;;
57439;Laerm;43282;47.188;8.896;2023-07-16T13:13:31;52.47;42.16;66.88;;
57439;Laerm;43282;47.188;8.896;2023-07-16T13:15:56;62.81;42.47;83.36;;
57439;Laerm;43282;47.188;8.896;2023-07-16T13:18:22;52.31;42.76;66.84;;
57439;Laerm;43282;47.188;8.896;2023-07-16T13:20:47;52.86;42.53;67.69;;
57439;Laerm;43282;47.188;8.896;2023-07-16T13:23:12;53.58;42.76;66.48;;
57439;Laerm;43282;47.188;8.896;2023-07-16T13:25:38;53.59;41.61;71.90;;
57439;Laerm;43282;47.188;8.896;2023-07-16T13:28:07;51.56;42.03;61.32;;
57439;Laerm;43282;47.188;8.896;2023-07-16T13:30:33;55.29;42.47;65.78;;
57439;Laerm;43282;47.188;8.896;2023-07-16T13:32:58;52.31;42.22;68.53;;
57439;Laerm;43282;47.188;8.896;2023-07-16T13:35:23;54.03;42.71;65.88;;
57439;Laerm;43282;47.188;8.896;2023-07-16T13:37:49;52.69;42.35;66.12;;
57439;Laerm;43282;47.188;8.896;2023-07-16T13:40:14;55.56;42.16;68.70;;
57439;Laerm;43282;47.188;8.896;2023-07-16T13:42:40;53.31;41.89;67.17;;
57439;Laerm;43282;47.188;8.896;2023-07-16T13:45:05;52.21;41.96;66.43;;
57439;Laerm;43282;47.188;8.896;2023-07-16T13:47:31;56.00;42.03;74.04;;
57439;Laerm;43282;47.188;8.896;2023-07-16T13:49:56;52.20;42.41;63.65;;
57439;Laerm;43282;47.188;8.896;2023-07-16T13:52:22;57.07;42.71;75.18;;